Time;durP1;ratioP1;P1;durP2;ratioP2;P2;SDS_P1;SDS_P2;PMS_P1;PMS_P2;Temp;Humidity;BMP_temperature;BMP_pressure;BME280_temperature;BME280_humidity;BME280_pressure;Samples;Min_cycle;Max_cycle;Signal;HPM_P1;HPM_P2
2024/01/28 00:00:14;;;;;;;18.35;9.15;;;;;;;;;;4950868;29;20050;-58
2024/01/28 00:02:40;;;;;;;20.60;10.43;;;;;;;;;;4951393;28;20042;-57
2024/01/28 00:05:07;;;;;;;26.42;12.30;;;;;;;;;;4953434;28;20051;-57
2024/01/28 00:07:33;;;;;;;28.88;12.52;;;;;;;;;;4954612;28;20414;-58
2024/01/28 00:09:59;;;;;;;24.80;11.20;;;;;;;;;;4955095;28;20487;-58
2024/01/28 00:12:25;;;;;;;20.90;11.25;;;;;;;;;;4955000;29;20043;-58
2024/01/28 00:14:51;;;;;;;24.10;12.07;;;;;;;;;;4953210;28;20050;-59
2024/01/28 00:17:18;;;;;;;20.30;11.50;;;;;;;;;;4955121;28;20047;-59
2024/01/28 00:19:44;;;;;;;22.85;12.50;;;;;;;;;;4954588;28;20562;-58
2024/01/28 00:22:10;;;;;;;24.40;12.25;;;;;;;;;;4955065;28;20043;-58
2024/01/28 00:24:36;;;;;;;23.92;11.50;;;;;;;;;;4954383;29;20039;-58
2024/01/28 00:27:02;;;;;;;19.77;11.18;;;;;;;;;;4954667;29;20039;-59
2024/01/28 00:29:29;;;;;;;21.88;11.27;;;;;;;;;;4952992;28;20054;-59
2024/01/28 00:31:56;;;;;;;24.38;11.77;;;;;;;;;;4948909;29;20390;-58
2024/01/28 00:34:22;;;;;;;23.90;12.25;;;;;;;;;;4953850;28;20058;-59
2024/01/28 00:36:48;;;;;;;25.13;12.68;;;;;;;;;;4952314;28;20054;-59
2024/01/28 00:39:14;;;;;;;23.13;11.50;;;;;;;;;;4954583;28;20078;-59
2024/01/28 00:41:40;;;;;;;26.35;12.27;;;;;;;;;;4954606;28;20059;-59
2024/01/28 00:44:06;;;;;;;23.67;11.57;;;;;;;;;;4954641;29;20420;-57
2024/01/28 00:46:32;;;;;;;33.47;12.77;;;;;;;;;;4953996;28;20054;-57
2024/01/28 00:48:58;;;;;;;28.38;11.80;;;;;;;;;;4954023;28;20069;-59
2024/01/28 00:51:24;;;;;;;21.40;11.55;;;;;;;;;;4953937;29;20066;-58
2024/01/28 00:53:51;;;;;;;21.77;11.63;;;;;;;;;;4954772;28;20073;-60
2024/01/28 00:56:17;;;;;;;24.38;11.73;;;;;;;;;;4952922;29;20039;-58
2024/01/28 00:58:44;;;;;;;24.55;12.10;;;;;;;;;;4954150;28;20415;-59
2024/01/28 01:01:10;;;;;;;26.60;12.63;;;;;;;;;;4951079;28;20055;-59
2024/01/28 01:03:36;;;;;;;24.48;11.98;;;;;;;;;;4953707;29;20498;-59
2024/01/28 01:06:02;;;;;;;27.15;11.45;;;;;;;;;;4952878;28;20047;-60
2024/01/28 01:08:32;;;;;;;25.20;11.45;;;;;;;;;;4953221;29;20043;-59
2024/01/28 01:10:59;;;;;;;23.35;11.95;;;;;;;;;;4953731;28;20419;-58
2024/01/28 01:13:25;;;;;;;23.25;12.48;;;;;;;;;;4954341;29;20046;-59
2024/01/28 01:15:51;;;;;;;21.90;12.13;;;;;;;;;;4953445;28;20035;-59
2024/01/28 01:18:18;;;;;;;23.95;10.88;;;;;;;;;;4953653;29;20043;-59
2024/01/28 01:20:44;;;;;;;23.38;10.95;;;;;;;;;;4953828;29;20039;-59
2024/01/28 01:23:10;;;;;;;22.50;11.15;;;;;;;;;;4951089;28;20063;-59
2024/01/28 01:25:36;;;;;;;23.95;10.70;;;;;;;;;;4952205;28;20043;-59
2024/01/28 01:28:02;;;;;;;19.63;9.90;;;;;;;;;;4952990;28;20051;-60
2024/01/28 01:30:29;;;;;;;16.88;8.73;;;;;;;;;;4953197;29;20412;-60
2024/01/28 01:32:55;;;;;;;16.92;9.60;;;;;;;;;;4951906;29;20090;-60
2024/01/28 01:35:21;;;;;;;19.17;10.43;;;;;;;;;;4952959;28;20066;-60
2024/01/28 01:37:48;;;;;;;18.67;10.00;;;;;;;;;;4951961;29;20031;-59
2024/01/28 01:40:14;;;;;;;21.30;10.48;;;;;;;;;;4952248;29;20043;-60
2024/01/28 01:42:42;;;;;;;24.58;11.57;;;;;;;;;;4952836;29;20031;-59
2024/01/28 01:45:08;;;;;;;28.23;12.85;;;;;;;;;;4948095;28;20031;-59
2024/01/28 01:47:35;;;;;;;41.53;15.15;;;;;;;;;;4953254;29;20043;-59
2024/01/28 01:50:02;;;;;;;31.10;14.00;;;;;;;;;;4952914;29;20035;-59
2024/01/28 01:52:29;;;;;;;33.42;16.10;;;;;;;;;;4953414;29;20043;-60
2024/01/28 01:54:56;;;;;;;29.17;14.13;;;;;;;;;;4952245;29;20430;-60
2024/01/28 01:57:24;;;;;;;29.77;13.88;;;;;;;;;;4967230;28;20450;-59
2024/01/28 01:59:50;;;;;;;26.58;11.80;;;;;;;;;;4951986;28;20039;-59
2024/01/28 02:02:16;;;;;;;25.70;11.88;;;;;;;;;;4952162;28;20051;-59
2024/01/28 02:04:43;;;;;;;23.00;11.95;;;;;;;;;;4950423;29;20062;-59
2024/01/28 02:07:10;;;;;;;21.45;10.15;;;;;;;;;;4952529;28;20043;-59
2024/01/28 02:09:36;;;;;;;21.95;10.05;;;;;;;;;;4951743;29;20042;-59
2024/01/28 02:12:02;;;;;;;21.60;10.48;;;;;;;;;;4950281;29;20038;-59
2024/01/28 02:14:29;;;;;;;19.70;9.82;;;;;;;;;;4949650;28;20399;-59
2024/01/28 02:16:55;;;;;;;20.13;10.25;;;;;;;;;;4952208;28;20047;-60
2024/01/28 02:19:22;;;;;;;20.10;10.38;;;;;;;;;;4952069;28;20054;-59
2024/01/28 02:21:48;;;;;;;22.77;10.32;;;;;;;;;;4951636;29;20034;-58
2024/01/28 02:24:14;;;;;;;19.85;10.65;;;;;;;;;;4952113;29;20047;-59
2024/01/28 02:26:40;;;;;;;23.88;9.40;;;;;;;;;;4947987;28;20043;-59
2024/01/28 02:29:06;;;;;;;21.80;9.88;;;;;;;;;;4951040;29;20054;-59
2024/01/28 02:31:32;;;;;;;19.92;9.07;;;;;;;;;;4949877;28;20047;-60
2024/01/28 02:33:59;;;;;;;20.67;10.07;;;;;;;;;;4952105;28;20050;-59
2024/01/28 02:36:29;;;;;;;23.85;9.88;;;;;;;;;;4950126;28;20426;-59
2024/01/28 02:38:55;;;;;;;;;;;;;;;;;;4947399;29;20047;-59
2024/01/28 02:41:21;;;;;;;23.25;9.32;;;;;;;;;;4951198;29;19997;-60
2024/01/28 02:43:47;;;;;;;29.40;10.07;;;;;;;;;;4952221;28;20577;-60
2024/01/28 02:46:14;;;;;;;25.13;10.07;;;;;;;;;;4948715;28;20108;-60
2024/01/28 02:48:41;;;;;;;20.58;9.73;;;;;;;;;;4951353;29;20046;-59
2024/01/28 02:51:07;;;;;;;21.58;9.80;;;;;;;;;;4951553;29;20034;-59
2024/01/28 02:53:33;;;;;;;18.85;9.80;;;;;;;;;;4951244;28;20050;-58
2024/01/28 02:56:00;;;;;;;19.00;9.25;;;;;;;;;;4947613;28;20035;-59
2024/01/28 02:58:27;;;;;;;14.85;8.30;;;;;;;;;;4915422;28;1085927;-59
2024/01/28 03:00:53;;;;;;;16.60;8.23;;;;;;;;;;4948097;28;20050;-59
2024/01/28 03:03:19;;;;;;;15.18;9.07;;;;;;;;;;4952175;29;20042;-59
2024/01/28 03:05:45;;;;;;;18.20;8.85;;;;;;;;;;4951571;28;20038;-59
2024/01/28 03:08:11;;;;;;;19.70;9.00;;;;;;;;;;4950656;29;20046;-59
2024/01/28 03:10:37;;;;;;;19.70;9.95;;;;;;;;;;4951561;29;20054;-58
2024/01/28 03:13:04;;;;;;;18.90;9.57;;;;;;;;;;4950594;29;20050;-59
2024/01/28 03:15:30;;;;;;;18.48;9.23;;;;;;;;;;4951456;29;20050;-59
2024/01/28 03:17:56;;;;;;;15.18;8.40;;;;;;;;;;4952401;29;20042;-58
2024/01/28 03:20:24;;;;;;;20.27;9.48;;;;;;;;;;4951931;28;20062;-59
2024/01/28 03:22:50;;;;;;;18.60;8.77;;;;;;;;;;4952065;28;20443;-59
2024/01/28 03:25:17;;;;;;;22.98;9.18;;;;;;;;;;4951977;28;20078;-58
2024/01/28 03:27:44;;;;;;;19.48;9.70;;;;;;;;;;4949634;29;20043;-60
2024/01/28 03:30:10;;;;;;;21.10;9.82;;;;;;;;;;4950191;29;20043;-59
2024/01/28 03:32:36;;;;;;;21.13;8.73;;;;;;;;;;4965582;28;20415;-59
2024/01/28 03:35:03;;;;;;;15.48;7.90;;;;;;;;;;4951461;28;20491;-60
2024/01/28 03:37:29;;;;;;;16.85;8.52;;;;;;;;;;4951096;28;20498;-59
2024/01/28 03:39:55;;;;;;;18.13;8.82;;;;;;;;;;4953513;28;20426;-61
2024/01/28 03:42:22;;;;;;;19.05;9.10;;;;;;;;;;4954807;28;20055;-60
2024/01/28 03:44:48;;;;;;;16.75;9.55;;;;;;;;;;4954904;28;20063;-59
2024/01/28 03:47:14;;;;;;;21.17;10.05;;;;;;;;;;4952709;28;20051;-59
2024/01/28 03:49:40;;;;;;;19.40;10.68;;;;;;;;;;4955290;29;20410;-59
2024/01/28 03:52:06;;;;;;;18.00;9.50;;;;;;;;;;4952962;28;20419;-59
2024/01/28 03:54:32;;;;;;;19.83;9.63;;;;;;;;;;4951130;29;20097;-59
2024/01/28 03:56:58;;;;;;;26.42;10.63;;;;;;;;;;4954779;28;20430;-59
2024/01/28 03:59:25;;;;;;;28.50;11.30;;;;;;;;;;4955115;28;20058;-60
2024/01/28 04:01:51;;;;;;;25.60;11.07;;;;;;;;;;4952719;28;20396;-60
2024/01/28 04:04:17;;;;;;;21.90;11.45;;;;;;;;;;4955330;29;20035;-58
2024/01/28 04:06:43;;;;;;;25.55;10.38;;;;;;;;;;4955206;28;20439;-59
2024/01/28 04:09:11;;;;;;;21.73;10.48;;;;;;;;;;4955682;28;20047;-60
2024/01/28 04:11:37;;;;;;;22.38;10.77;;;;;;;;;;4955280;29;20688;-59
2024/01/28 04:14:03;;;;;;;22.65;10.35;;;;;;;;;;4955640;28;20058;-59
2024/01/28 04:16:31;;;;;;;19.30;10.05;;;;;;;;;;4955116;29;20047;-58
2024/01/28 04:18:58;;;;;;;17.45;8.95;;;;;;;;;;4955488;28;20043;-59
2024/01/28 04:21:24;;;;;;;19.85;9.35;;;;;;;;;;4955395;28;20511;-59
2024/01/28 04:23:51;;;;;;;19.30;8.80;;;;;;;;;;4955332;29;20035;-59
2024/01/28 04:26:18;;;;;;;19.85;8.43;;;;;;;;;;4954726;29;20046;-58
2024/01/28 04:28:46;;;;;;;18.30;8.60;;;;;;;;;;4954936;28;20507;-59
2024/01/28 04:31:16;;;;;;;13.55;7.97;;;;;;;;;;4954894;28;20487;-58
2024/01/28 04:33:42;;;;;;;17.27;8.18;;;;;;;;;;4954787;28;20442;-59
2024/01/28 04:36:08;;;;;;;17.67;9.27;;;;;;;;;;4954690;28;20255;-58
2024/01/28 04:38:34;;;;;;;15.55;8.32;;;;;;;;;;4954608;29;20035;-58
2024/01/28 04:41:01;;;;;;;16.75;8.13;;;;;;;;;;4954974;29;20034;-60
2024/01/28 04:43:27;;;;;;;13.27;7.63;;;;;;;;;;4954844;28;20058;-60
2024/01/28 04:45:53;;;;;;;14.20;7.55;;;;;;;;;;4954644;29;20043;-60
2024/01/28 04:48:20;;;;;;;18.48;8.75;;;;;;;;;;4954692;28;20055;-59
2024/01/28 04:50:46;;;;;;;15.32;8.48;;;;;;;;;;4953501;28;20054;-56
2024/01/28 04:53:12;;;;;;;15.77;8.13;;;;;;;;;;4952713;28;20058;-60
2024/01/28 04:55:39;;;;;;;16.55;8.20;;;;;;;;;;4952431;28;20078;-58
2024/01/28 04:58:05;;;;;;;17.02;9.20;;;;;;;;;;4954754;28;20051;-58
2024/01/28 05:00:32;;;;;;;18.55;8.45;;;;;;;;;;4953862;28;20047;-58
2024/01/28 05:02:58;;;;;;;14.93;8.40;;;;;;;;;;4954161;29;20043;-58
2024/01/28 05:05:24;;;;;;;17.48;9.27;;;;;;;;;;4953656;28;20070;-59
2024/01/28 05:07:50;;;;;;;20.45;10.15;;;;;;;;;;4950937;28;20050;-59
2024/01/28 05:10:16;;;;;;;19.98;10.02;;;;;;;;;;4952747;29;20043;-58
2024/01/28 05:12:45;;;;;;;20.23;9.80;;;;;;;;;;4950640;29;20420;-59
2024/01/28 05:15:16;;;;;;;21.85;10.18;;;;;;;;;;4953431;28;20636;-59
2024/01/28 05:17:43;;;;;;;16.08;9.25;;;;;;;;;;4953567;28;20081;-58
2024/01/28 05:20:10;;;;;;;19.70;9.20;;;;;;;;;;4953924;28;20051;-59
2024/01/28 05:22:36;;;;;;;18.55;9.90;;;;;;;;;;4953326;29;20046;-58
2024/01/28 05:25:02;;;;;;;19.30;9.93;;;;;;;;;;4953430;28;20043;-58
2024/01/28 05:27:29;;;;;;;21.15;9.95;;;;;;;;;;4953608;28;20074;-59
2024/01/28 05:29:58;;;;;;;18.42;9.77;;;;;;;;;;4953567;28;20054;-58
2024/01/28 05:32:27;;;;;;;23.05;10.88;;;;;;;;;;4948308;29;20039;-59
2024/01/28 05:34:56;;;;;;;19.83;9.70;;;;;;;;;;4946833;29;20031;-59
2024/01/28 05:37:22;;;;;;;20.13;9.75;;;;;;;;;;4951807;28;20059;-58
2024/01/28 05:39:48;;;;;;;20.13;9.68;;;;;;;;;;4953404;29;20050;-58
2024/01/28 05:42:14;;;;;;;19.80;10.02;;;;;;;;;;4952129;28;20058;-58
2024/01/28 05:44:40;;;;;;;25.02;9.93;;;;;;;;;;4952099;28;20422;-59
2024/01/28 05:47:07;;;;;;;19.08;9.82;;;;;;;;;;4953549;28;20411;-59
2024/01/28 05:49:33;;;;;;;19.83;9.77;;;;;;;;;;4952400;28;20628;-58
2024/01/28 05:51:59;;;;;;;19.20;9.55;;;;;;;;;;4953595;29;20043;-59
2024/01/28 05:54:25;;;;;;;18.85;9.32;;;;;;;;;;4952762;29;20043;-59
2024/01/28 05:56:51;;;;;;;24.10;9.93;;;;;;;;;;4953246;28;20047;-58
2024/01/28 05:59:17;;;;;;;18.00;9.07;;;;;;;;;;4950539;28;20044;-58
2024/01/28 06:01:43;;;;;;;18.65;10.18;;;;;;;;;;4951185;28;20043;-59
2024/01/28 06:04:10;;;;;;;19.35;9.45;;;;;;;;;;4952474;29;20541;-59
2024/01/28 06:06:36;;;;;;;22.73;9.60;;;;;;;;;;4953025;28;20062;-58
2024/01/28 06:09:04;;;;;;;17.50;8.85;;;;;;;;;;4952479;28;20516;-60
2024/01/28 06:11:30;;;;;;;18.23;9.57;;;;;;;;;;4952597;29;20039;-58
2024/01/28 06:13:56;;;;;;;17.75;8.95;;;;;;;;;;4953131;29;20043;-55
2024/01/28 06:16:22;;;;;;;18.80;9.40;;;;;;;;;;4951230;28;20054;-58
2024/01/28 06:18:48;;;;;;;18.88;9.27;;;;;;;;;;4952352;29;20043;-57
2024/01/28 06:21:15;;;;;;;16.70;8.57;;;;;;;;;;4952857;29;20050;-57
2024/01/28 06:23:42;;;;;;;17.63;8.45;;;;;;;;;;4950355;29;20511;-58
2024/01/28 06:26:08;;;;;;;15.57;8.75;;;;;;;;;;4950251;29;20039;-58
2024/01/28 06:28:34;;;;;;;17.17;8.27;;;;;;;;;;4951495;28;20058;-58
2024/01/28 06:31:00;;;;;;;15.75;8.27;;;;;;;;;;4948549;28;20055;-58
2024/01/28 06:33:27;;;;;;;20.17;8.63;;;;;;;;;;4952587;29;20054;-57
2024/01/28 06:35:54;;;;;;;16.23;8.77;;;;;;;;;;4952289;28;20051;-58
2024/01/28 06:38:20;;;;;;;18.38;8.68;;;;;;;;;;4952715;29;20046;-57
2024/01/28 06:40:46;;;;;;;17.85;8.50;;;;;;;;;;4952222;29;20042;-59
2024/01/28 06:43:12;;;;;;;19.23;8.45;;;;;;;;;;4952190;29;20392;-58
2024/01/28 06:45:38;;;;;;;23.67;11.77;;;;;;;;;;4949765;29;20035;-58
2024/01/28 06:48:04;;;;;;;17.80;10.20;;;;;;;;;;4952663;28;20059;-57
2024/01/28 06:50:31;;;;;;;19.55;9.07;;;;;;;;;;4950321;29;20423;-58
2024/01/28 06:53:01;;;;;;;16.55;8.45;;;;;;;;;;4952435;29;20046;-58
2024/01/28 06:55:27;;;;;;;14.95;8.07;;;;;;;;;;4951208;28;20035;-58
2024/01/28 06:57:53;;;;;;;17.77;8.73;;;;;;;;;;4951180;29;20042;-58
2024/01/28 07:00:19;;;;;;;16.45;8.60;;;;;;;;;;4950297;29;20046;-57
2024/01/28 07:02:46;;;;;;;17.98;8.20;;;;;;;;;;4950716;29;20038;-60
2024/01/28 07:05:12;;;;;;;20.67;9.27;;;;;;;;;;4947592;28;20062;-58
2024/01/28 07:07:39;;;;;;;18.20;9.25;;;;;;;;;;4951820;29;20039;-57
2024/01/28 07:10:05;;;;;;;16.65;8.50;;;;;;;;;;4951030;29;20035;-57
2024/01/28 07:12:31;;;;;;;16.98;7.97;;;;;;;;;;4951723;29;20035;-58
2024/01/28 07:14:58;;;;;;;18.13;8.90;;;;;;;;;;4949781;28;20415;-59
2024/01/28 07:17:24;;;;;;;16.77;9.73;;;;;;;;;;4952266;28;20043;-57
2024/01/28 07:19:50;;;;;;;18.25;8.77;;;;;;;;;;4951703;28;20043;-59
2024/01/28 07:22:16;;;;;;;13.57;7.45;;;;;;;;;;4951760;28;20050;-56
2024/01/28 07:24:42;;;;;;;20.23;8.27;;;;;;;;;;4951446;28;20047;-56
2024/01/28 07:27:08;;;;;;;18.45;8.25;;;;;;;;;;4952228;28;20131;-58
2024/01/28 07:29:35;;;;;;;14.63;8.23;;;;;;;;;;4950964;28;20047;-58
2024/01/28 07:32:01;;;;;;;13.18;7.90;;;;;;;;;;4950817;29;20065;-58
2024/01/28 07:34:27;;;;;;;15.70;8.43;;;;;;;;;;4948279;29;20038;-59
2024/01/28 07:36:54;;;;;;;21.42;10.95;;;;;;;;;;4941630;28;20051;-57
2024/01/28 07:39:20;;;;;;;24.52;10.43;;;;;;;;;;4977695;23;20521;-57
2024/01/28 07:41:46;;;;;;;29.77;14.30;;;;;;;;;;4974400;28;20053;-57
2024/01/28 07:44:12;;;;;;;38.00;17.65;;;;;;;;;;4976399;28;20053;-55
2024/01/28 07:46:39;;;;;;;36.00;16.52;;;;;;;;;;4973129;28;20461;-58
2024/01/28 07:49:05;;;;;;;33.65;17.92;;;;;;;;;;4976937;28;20058;-57
2024/01/28 07:51:31;;;;;;;46.05;23.80;;;;;;;;;;4975012;28;20038;-57
2024/01/28 07:53:57;;;;;;;38.15;20.60;;;;;;;;;;4975183;28;20057;-56
2024/01/28 07:56:23;;;;;;;31.15;16.75;;;;;;;;;;4976253;28;20038;-56
2024/01/28 07:58:50;;;;;;;30.25;16.55;;;;;;;;;;4973751;28;20038;-56
2024/01/28 08:01:16;;;;;;;29.83;15.43;;;;;;;;;;4981361;28;20039;-57
2024/01/28 08:03:42;;;;;;;29.88;16.10;;;;;;;;;;4980482;28;20161;-55
2024/01/28 08:06:09;;;;;;;33.35;16.30;;;;;;;;;;4979412;28;20057;-55
2024/01/28 08:08:35;;;;;;;30.60;15.80;;;;;;;;;;4972077;28;20034;-55
2024/01/28 08:11:02;;;;;;;33.83;17.42;;;;;;;;;;4970952;28;20603;-55
2024/01/28 08:13:29;;;;;;;46.60;23.23;;;;;;;;;;4973820;28;20522;-56
2024/01/28 08:16:01;;;;;;;46.83;23.67;;;;;;;;;;4972742;28;20434;-56
2024/01/28 08:18:28;;;;;;;58.88;29.33;;;;;;;;;;4975699;28;20537;-56
2024/01/28 08:20:54;;;;;;;66.78;31.20;;;;;;;;;;4971435;28;21407;-55
2024/01/28 08:23:20;;;;;;;72.25;34.00;;;;;;;;;;4974245;28;20058;-54
2024/01/28 08:25:47;;;;;;;72.07;35.75;;;;;;;;;;4986209;28;20437;-55
2024/01/28 08:28:13;;;;;;;74.60;38.80;;;;;;;;;;4975490;28;20038;-55
2024/01/28 08:30:39;;;;;;;68.53;33.50;;;;;;;;;;4983083;28;20394;-56
2024/01/28 08:33:05;;;;;;;54.75;27.95;;;;;;;;;;4986024;28;20058;-55
2024/01/28 08:35:34;;;;;;;47.78;23.95;;;;;;;;;;4980139;28;20125;-55
2024/01/28 08:38:00;;;;;;;49.13;23.10;;;;;;;;;;4982380;28;20035;-55
2024/01/28 08:40:26;;;;;;;37.63;20.02;;;;;;;;;;4979129;28;20289;-56
2024/01/28 08:42:53;;;;;;;41.80;19.42;;;;;;;;;;4984926;28;20069;-55
2024/01/28 08:45:19;;;;;;;35.28;18.27;;;;;;;;;;4981064;28;20039;-54
2024/01/28 08:47:45;;;;;;;32.65;17.90;;;;;;;;;;4984608;28;20046;-53
2024/01/28 08:50:12;;;;;;;38.22;18.23;;;;;;;;;;4983412;28;20414;-55
2024/01/28 08:52:38;;;;;;;32.67;17.33;;;;;;;;;;4985954;28;20054;-55
2024/01/28 08:55:04;;;;;;;29.75;16.20;;;;;;;;;;4983685;28;20073;-54
2024/01/28 08:57:32;;;;;;;32.90;16.55;;;;;;;;;;4982400;28;20047;-55
2024/01/28 08:59:58;;;;;;;28.40;14.80;;;;;;;;;;4979042;28;20037;-55
2024/01/28 09:02:24;;;;;;;28.27;15.23;;;;;;;;;;4979836;28;20058;-55
2024/01/28 09:04:50;;;;;;;29.10;15.13;;;;;;;;;;4981024;28;20030;-56
2024/01/28 09:07:16;;;;;;;27.58;15.27;;;;;;;;;;4986970;28;20434;-54
2024/01/28 09:09:42;;;;;;;29.33;15.60;;;;;;;;;;4979942;28;20395;-55
2024/01/28 09:12:09;;;;;;;30.30;15.20;;;;;;;;;;4975863;28;20054;-55
2024/01/28 09:14:37;;;;;;;29.13;14.63;;;;;;;;;;4975227;28;20047;-55
2024/01/28 09:17:03;;;;;;;35.25;16.25;;;;;;;;;;4977786;28;20039;-55
2024/01/28 09:19:29;;;;;;;32.83;17.17;;;;;;;;;;4974928;28;20050;-56
2024/01/28 09:21:55;;;;;;;30.83;16.92;;;;;;;;;;4983284;28;20077;-55
2024/01/28 09:24:21;;;;;;;31.90;18.08;;;;;;;;;;4974712;28;20035;-57
2024/01/28 09:26:48;;;;;;;35.55;18.30;;;;;;;;;;4981345;28;20429;-55
2024/01/28 09:29:14;;;;;;;38.15;19.63;;;;;;;;;;4983897;28;20625;-55
2024/01/28 09:31:45;;;;;;;34.20;17.48;;;;;;;;;;4983238;28;20046;-55
2024/01/28 09:34:11;;;;;;;29.55;16.40;;;;;;;;;;4986545;28;20405;-55
2024/01/28 09:36:37;;;;;;;26.58;15.43;;;;;;;;;;4981628;28;20437;-56
2024/01/28 09:39:04;;;;;;;28.00;15.65;;;;;;;;;;4985761;28;20080;-57
2024/01/28 09:41:37;;;;;;;26.90;14.85;;;;;;;;;;4986440;28;20062;-57
2024/01/28 09:44:03;;;;;;;38.10;17.15;;;;;;;;;;4987679;28;20045;-57
2024/01/28 09:46:30;;;;;;;35.63;15.40;;;;;;;;;;4975353;28;20041;-57
2024/01/28 09:48:59;;;;;;;38.47;17.42;;;;;;;;;;4986910;28;20046;-56
2024/01/28 09:51:25;;;;;;;29.37;14.97;;;;;;;;;;4984847;28;20514;-57
2024/01/28 09:53:54;;;;;;;25.83;13.30;;;;;;;;;;4980665;28;20284;-57
2024/01/28 09:56:20;;;;;;;22.93;12.87;;;;;;;;;;4978636;28;20046;-56
2024/01/28 09:58:47;;;;;;;20.08;11.57;;;;;;;;;;4983921;28;20035;-56
2024/01/28 10:01:14;;;;;;;19.33;12.05;;;;;;;;;;4978603;28;20506;-56
2024/01/28 10:03:42;;;;;;;17.50;11.65;;;;;;;;;;4977916;28;20041;-56
2024/01/28 10:06:08;;;;;;;24.60;12.30;;;;;;;;;;4980416;28;20053;-57
2024/01/28 10:08:34;;;;;;;25.10;13.45;;;;;;;;;;4986929;28;20046;-57
2024/01/28 10:11:02;;;;;;;22.85;12.63;;;;;;;;;;4975113;28;20542;-56
2024/01/28 10:13:29;;;;;;;19.02;11.95;;;;;;;;;;4976495;28;20039;-53
2024/01/28 10:15:57;;;;;;;22.27;12.38;;;;;;;;;;4976587;28;20053;-57
2024/01/28 10:18:24;;;;;;;23.70;12.80;;;;;;;;;;4979423;28;20046;-55
2024/01/28 10:20:51;;;;;;;25.73;14.90;;;;;;;;;;4981792;28;20026;-57
2024/01/28 10:23:17;;;;;;;33.47;17.85;;;;;;;;;;4980694;28;20331;-57
2024/01/28 10:25:47;;;;;;;30.88;17.35;;;;;;;;;;4983577;28;20395;-57
2024/01/28 10:28:17;;;;;;;29.75;15.85;;;;;;;;;;4987670;28;20050;-56
2024/01/28 10:30:43;;;;;;;25.25;13.38;;;;;;;;;;4975526;28;20042;-55
2024/01/28 10:33:10;;;;;;;22.33;12.70;;;;;;;;;;4983402;28;20046;-56
2024/01/28 10:35:37;;;;;;;20.98;12.60;;;;;;;;;;4986965;28;20062;-55
2024/01/28 10:38:04;;;;;;;21.20;13.25;;;;;;;;;;4978907;28;20425;-57
2024/01/28 10:40:35;;;;;;;25.92;14.70;;;;;;;;;;4984080;28;20145;-56
2024/01/28 10:43:03;;;;;;;26.23;15.38;;;;;;;;;;4987002;28;20053;-56
2024/01/28 10:45:31;;;;;;;23.75;15.20;;;;;;;;;;4982875;28;20047;-57
2024/01/28 10:48:06;;;;;;;24.85;15.85;;;;;;;;;;4986032;28;20053;-56
2024/01/28 10:50:34;;;;;;;24.05;15.40;;;;;;;;;;4974995;28;20039;-56
2024/01/28 10:53:04;;;;;;;25.63;15.43;;;;;;;;;;4982917;28;20034;-54
2024/01/28 10:55:31;;;;;;;22.92;13.90;;;;;;;;;;4981938;28;20031;-57
2024/01/28 10:58:03;;;;;;;27.98;15.55;;;;;;;;;;4982772;28;20536;-57
2024/01/28 11:00:30;;;;;;;21.55;13.55;;;;;;;;;;4978775;28;20046;-56
2024/01/28 11:03:01;;;;;;;21.05;12.80;;;;;;;;;;4977334;28;20046;-56
2024/01/28 11:05:29;;;;;;;19.60;12.23;;;;;;;;;;4985510;28;20034;-57
2024/01/28 11:07:59;;;;;;;20.80;12.50;;;;;;;;;;4981907;28;20087;-56
2024/01/28 11:10:27;;;;;;;22.80;12.07;;;;;;;;;;4974642;28;20061;-55
2024/01/28 11:12:56;;;;;;;16.67;11.65;;;;;;;;;;4972629;28;20035;-55
2024/01/28 11:15:23;;;;;;;17.80;10.95;;;;;;;;;;4978569;28;20046;-56
2024/01/28 11:17:50;;;;;;;17.23;11.15;;;;;;;;;;4978592;28;20050;-55
2024/01/28 11:20:27;;;;;;;16.52;11.25;;;;;;;;;;4976560;28;20035;-56
2024/01/28 11:22:56;;;;;;;17.13;11.38;;;;;;;;;;4974711;28;20038;-57
2024/01/28 11:25:24;;;;;;;19.90;11.05;;;;;;;;;;4984220;28;20054;-55
2024/01/28 11:27:56;;;;;;;15.77;10.23;;;;;;;;;;4986008;28;20038;-55
2024/01/28 11:30:23;;;;;;;14.38;9.75;;;;;;;;;;4972290;28;20042;-56
2024/01/28 11:32:53;;;;;;;15.95;9.95;;;;;;;;;;4986440;28;20038;-55
2024/01/28 11:35:21;;;;;;;13.65;9.60;;;;;;;;;;4979097;28;20410;-58
2024/01/28 11:37:57;;;;;;;14.15;9.30;;;;;;;;;;4978225;28;20050;-56
2024/01/28 11:40:30;;;;;;;12.55;8.93;;;;;;;;;;4980988;28;20039;-57
2024/01/28 11:42:57;;;;;;;16.80;11.18;;;;;;;;;;4980420;28;20037;-57
2024/01/28 11:45:28;;;;;;;19.90;11.40;;;;;;;;;;4986257;28;20046;-57
2024/01/28 11:47:55;;;;;;;14.55;10.32;;;;;;;;;;4983191;28;20053;-56
2024/01/28 11:50:21;;;;;;;15.50;9.27;;;;;;;;;;4978533;28;20038;-58
2024/01/28 11:52:47;;;;;;;15.00;9.25;;;;;;;;;;4981263;28;20069;-57
2024/01/28 11:55:15;;;;;;;10.90;8.13;;;;;;;;;;4975524;28;20050;-57
2024/01/28 11:57:45;;;;;;;11.93;8.55;;;;;;;;;;4982733;28;20038;-57
2024/01/28 12:00:13;;;;;;;14.35;9.50;;;;;;;;;;4983540;28;20552;-56
2024/01/28 12:02:40;;;;;;;12.88;8.23;;;;;;;;;;4984604;28;20047;-56
2024/01/28 12:05:08;;;;;;;12.30;8.57;;;;;;;;;;4986307;28;20516;-57
2024/01/28 12:07:35;;;;;;;25.65;15.40;;;;;;;;;;4978233;28;20499;-58
2024/01/28 12:10:12;;;;;;;14.52;9.35;;;;;;;;;;4977742;28;20490;-57
2024/01/28 12:12:42;;;;;;;12.75;8.68;;;;;;;;;;4980044;28;20050;-57
2024/01/28 12:15:11;;;;;;;12.45;7.72;;;;;;;;;;4977931;28;20398;-57
2024/01/28 12:17:39;;;;;;;11.30;7.72;;;;;;;;;;4976273;28;20434;-58
2024/01/28 12:20:07;;;;;;;11.80;7.95;;;;;;;;;;4975706;28;20051;-57
2024/01/28 12:22:37;;;;;;;10.70;7.40;;;;;;;;;;4984465;28;20030;-55
2024/01/28 12:25:13;;;;;;;9.93;7.38;;;;;;;;;;4982625;28;20042;-57
2024/01/28 12:27:40;;;;;;;9.45;7.32;;;;;;;;;;4983247;28;20435;-57
2024/01/28 12:30:07;;;;;;;11.05;6.82;;;;;;;;;;4985900;28;20042;-58
2024/01/28 12:32:33;;;;;;;10.48;6.75;;;;;;;;;;4986518;28;20438;-56
2024/01/28 12:35:04;;;;;;;12.57;7.90;;;;;;;;;;4979525;28;20507;-57
2024/01/28 12:37:30;;;;;;;11.98;8.30;;;;;;;;;;4984975;28;20063;-57
2024/01/28 12:39:57;;;;;;;11.43;7.95;;;;;;;;;;4982596;28;20042;-58
2024/01/28 12:42:23;;;;;;;12.70;7.72;;;;;;;;;;4983121;28;20149;-58
2024/01/28 12:44:49;;;;;;;13.32;8.48;;;;;;;;;;4984274;28;20050;-57
2024/01/28 12:47:15;;;;;;;9.70;6.45;;;;;;;;;;4987382;28;20510;-57
2024/01/28 12:49:42;;;;;;;11.70;7.25;;;;;;;;;;4983733;28;20053;-57
2024/01/28 12:52:08;;;;;;;13.23;8.38;;;;;;;;;;4982791;28;20034;-58
2024/01/28 12:54:35;;;;;;;11.27;7.57;;;;;;;;;;4982254;28;20053;-57
2024/01/28 12:57:01;;;;;;;12.02;7.95;;;;;;;;;;4977690;28;20417;-56
2024/01/28 12:59:28;;;;;;;12.15;8.20;;;;;;;;;;4979880;28;20055;-57
2024/01/28 13:01:54;;;;;;;11.65;8.18;;;;;;;;;;4978185;28;20046;-59
2024/01/28 13:04:21;;;;;;;11.57;8.95;;;;;;;;;;4978793;28;20058;-57
2024/01/28 13:06:47;;;;;;;12.88;9.55;;;;;;;;;;4981747;28;21101;-56
2024/01/28 13:09:13;;;;;;;28.52;15.10;;;;;;;;;;4976895;28;20054;-58
2024/01/28 13:11:40;;;;;;;16.13;10.35;;;;;;;;;;4977096;28;20046;-57
2024/01/28 13:14:06;;;;;;;11.95;8.80;;;;;;;;;;4980398;28;20047;-59
2024/01/28 13:16:33;;;;;;;13.20;9.27;;;;;;;;;;4982619;28;20038;-57
2024/01/28 13:18:59;;;;;;;12.98;8.75;;;;;;;;;;4980173;28;20073;-57
2024/01/28 13:21:25;;;;;;;12.13;8.57;;;;;;;;;;4973592;28;20046;-58
2024/01/28 13:23:52;;;;;;;10.32;7.38;;;;;;;;;;4980252;28;20441;-56
2024/01/28 13:26:20;;;;;;;10.10;7.32;;;;;;;;;;4984157;28;20038;-57
2024/01/28 13:28:46;;;;;;;10.43;7.30;;;;;;;;;;4984234;28;20376;-57
2024/01/28 13:31:12;;;;;;;10.38;7.93;;;;;;;;;;4977533;28;20394;-56
2024/01/28 13:33:39;;;;;;;9.43;6.90;;;;;;;;;;4984381;28;20053;-59
2024/01/28 13:36:06;;;;;;;11.35;8.05;;;;;;;;;;4986220;28;20046;-57
2024/01/28 13:38:32;;;;;;;10.48;7.38;;;;;;;;;;4981878;28;20406;-58
2024/01/28 13:40:58;;;;;;;13.15;7.68;;;;;;;;;;4985902;28;20627;-57
2024/01/28 13:43:26;;;;;;;10.70;7.35;;;;;;;;;;4976267;28;20051;-58
2024/01/28 13:45:52;;;;;;;10.73;8.32;;;;;;;;;;4982970;28;20057;-58
2024/01/28 13:48:19;;;;;;;10.18;7.40;;;;;;;;;;4977083;28;20058;-59
2024/01/28 13:50:45;;;;;;;12.05;8.20;;;;;;;;;;4975298;28;20031;-57
2024/01/28 13:53:11;;;;;;;10.18;7.63;;;;;;;;;;4978578;28;20058;-57
2024/01/28 13:55:38;;;;;;;12.50;5.97;;;;;;;;;;4977794;28;20046;-58
2024/01/28 13:58:05;;;;;;;12.05;5.30;;;;;;;;;;4974368;28;20070;-59
2024/01/28 14:00:31;;;;;;;8.73;5.53;;;;;;;;;;4974984;28;20074;-59
2024/01/28 14:02:57;;;;;;;10.68;6.93;;;;;;;;;;4976743;28;20176;-58
2024/01/28 14:05:24;;;;;;;12.75;7.88;;;;;;;;;;4979006;28;20041;-57
2024/01/28 14:07:50;;;;;;;8.57;6.93;;;;;;;;;;4982841;28;20054;-57
2024/01/28 14:10:17;;;;;;;13.68;7.97;;;;;;;;;;4978846;28;20054;-61
2024/01/28 14:12:43;;;;;;;11.60;7.53;;;;;;;;;;4978828;28;20042;-58
2024/01/28 14:15:09;;;;;;;10.23;7.40;;;;;;;;;;4983281;28;20049;-59
2024/01/28 14:17:36;;;;;;;13.73;8.88;;;;;;;;;;4979394;28;20042;-60
2024/01/28 14:20:03;;;;;;;10.18;7.30;;;;;;;;;;4978324;28;20043;-60